Aviation Digital Data Service (ADDS)

Output produced by METARs form (0223 UTC 25 April 2014)
found at http://aviationweather.gov/adds/metars/
 
KGMU 242347Z 2500/2524 13005KT P6SM SCT110 SCT250 
     FM250900 11004KT P6SM BKN015 OVC026 
     FM251100 16006KT P6SM BKN007 OVC015 
     FM251400 21008KT P6SM VCTS BKN011CB 
     FM251600 22012G20KT P6SM VCTS SCT025CB BKN045 
     PROB30 2516/2518 4SM TSRA BKN040CB 
     FM252000 25014G25KT P6SM VCSH SCT060